Time;durP1;ratioP1;P1;durP2;ratioP2;P2;SDS_P1;SDS_P2;PMS_P1;PMS_P2;Temp;Humidity;BMP_temperature;BMP_pressure;BME280_temperature;BME280_humidity;BME280_pressure;Samples;Min_cycle;Max_cycle;Signal;HPM_P1;HPM_P2
2022/01/19 00:01:44;;;;;;;301.42;95.60;;;;;;;;;;4999049;28;20026;-82
2022/01/19 00:04:12;;;;;;;268.88;89.10;;;;;;;;;;4998986;28;20073;-82
2022/01/19 00:06:39;;;;;;;275.15;92.85;;;;;;;;;;5012991;28;20099;-82
2022/01/19 00:09:07;;;;;;;294.00;96.47;;;;;;;;;;5013878;28;20423;-83
2022/01/19 00:11:35;;;;;;;264.42;89.43;;;;;;;;;;4998845;28;20359;-83
2022/01/19 00:14:02;;;;;;;294.17;95.75;;;;;;;;;;4998479;28;20411;-83
2022/01/19 00:16:30;;;;;;;265.63;90.03;;;;;;;;;;5013881;28;20030;-83
2022/01/19 00:18:57;;;;;;;320.05;98.90;;;;;;;;;;5013805;28;20431;-83
2022/01/19 00:21:25;;;;;;;291.85;97.07;;;;;;;;;;5013659;28;20335;-83
2022/01/19 00:23:52;;;;;;;268.42;87.95;;;;;;;;;;5013809;28;20104;-83
2022/01/19 00:26:22;;;;;;;272.63;90.03;;;;;;;;;;5014047;28;20030;-83
2022/01/19 00:28:49;;;;;;;261.75;89.90;;;;;;;;;;5013769;28;20041;-82
2022/01/19 00:31:17;;;;;;;270.48;93.47;;;;;;;;;;4998479;28;20026;-83
2022/01/19 00:33:45;;;;;;;263.02;90.05;;;;;;;;;;5013476;28;20025;-82
2022/01/19 00:36:12;;;;;;;261.30;91.40;;;;;;;;;;5013344;28;20042;-82
2022/01/19 00:38:39;;;;;;;251.07;90.72;;;;;;;;;;4998063;28;20476;-82
2022/01/19 00:41:07;;;;;;;331.08;104.68;;;;;;;;;;4998078;28;20085;-82
2022/01/19 00:43:37;;;;;;;304.10;97.38;;;;;;;;;;4998252;28;20300;-82
2022/01/19 00:46:05;;;;;;;279.67;89.88;;;;;;;;;;4998131;28;20412;-82
2022/01/19 00:48:33;;;;;;;296.73;93.30;;;;;;;;;;5013232;28;20031;-81
2022/01/19 00:51:02;;;;;;;250.27;84.18;;;;;;;;;;5013523;28;20297;-83
2022/01/19 00:53:30;;;;;;;274.05;88.22;;;;;;;;;;5013511;28;20037;-81
2022/01/19 00:55:58;;;;;;;309.73;97.75;;;;;;;;;;4998171;28;20023;-80
2022/01/19 00:58:25;;;;;;;289.13;94.20;;;;;;;;;;4997983;28;20058;-80
2022/01/19 01:00:53;;;;;;;259.10;87.13;;;;;;;;;;5013187;28;20132;-82
2022/01/19 01:03:21;;;;;;;285.90;92.25;;;;;;;;;;4998060;28;20101;-81
2022/01/19 01:05:49;;;;;;;257.80;88.20;;;;;;;;;;5013616;28;20062;-81
2022/01/19 01:08:19;;;;;;;272.65;92.88;;;;;;;;;;5013705;28;20037;-84
2022/01/19 01:10:48;;;;;;;287.88;91.97;;;;;;;;;;4998242;28;20019;-82
2022/01/19 01:13:21;;;;;;;319.15;95.78;;;;;;;;;;5013520;28;20041;-82
2022/01/19 01:18:27;;;;;;;246.93;90.15;;;;;;;;;;4997404;28;20442;-81
2022/01/19 01:20:56;;;;;;;237.38;87.72;;;;;;;;;;5013321;28;20033;-82
2022/01/19 01:23:25;;;;;;;241.27;89.63;;;;;;;;;;5012766;28;20305;-82
2022/01/19 01:25:53;;;;;;;277.35;101.32;;;;;;;;;;4998036;28;20033;-82
2022/01/19 01:28:21;;;;;;;254.88;89.80;;;;;;;;;;4997656;28;20030;-83
2022/01/19 01:30:50;;;;;;;255.90;90.18;;;;;;;;;;5013425;28;20030;-81
2022/01/19 01:33:18;;;;;;;254.95;86.90;;;;;;;;;;5012641;28;20026;-73
2022/01/19 01:35:44;;;;;;;248.85;89.22;;;;;;;;;;4996849;28;20047;-74
2022/01/19 01:38:11;;;;;;;251.70;86.22;;;;;;;;;;4996912;28;20038;-72
2022/01/19 01:40:39;;;;;;;283.90;93.18;;;;;;;;;;5012228;28;20597;-72
2022/01/19 01:43:07;;;;;;;284.10;93.35;;;;;;;;;;5012110;28;20034;-72
2022/01/19 01:45:38;;;;;;;276.38;93.03;;;;;;;;;;4996808;28;20030;-72
2022/01/19 01:48:15;;;;;;;276.75;92.90;;;;;;;;;;4996527;28;20022;-73
2022/01/19 01:53:31;;;;;;;378.65;49.83;;;;;;;;;;5019024;28;20044;-78
2022/01/19 01:56:04;;;;;;;248.15;45.08;;;;;;;;;;5016979;28;20026;-83
2022/01/19 01:58:34;;;;;;;452.35;58.00;;;;;;;;;;5030386;28;20399;-76
2022/01/19 02:01:02;;;;;;;322.13;56.30;;;;;;;;;;5027094;28;20089;-81
2022/01/19 02:03:36;;;;;;;333.15;50.92;;;;;;;;;;5028522;28;20447;-79
2022/01/19 02:08:52;;;;;;;323.30;51.97;;;;;;;;;;5014650;28;20084;-81
2022/01/19 02:25:57;;;;;;;316.60;68.35;;;;;;;;;;4974968;28;20027;-76
2022/01/19 02:42:19;;;;;;;330.70;48.13;;;;;;;;;;4978848;28;20391;-82
2022/01/19 02:49:45;;;;;;;185.73;49.75;;;;;;;;;;4978201;28;20034;-77
2022/01/19 02:52:13;;;;;;;368.50;54.55;;;;;;;;;;5015972;28;20034;-75
2022/01/19 02:54:41;;;;;;;198.02;54.78;;;;;;;;;;5019123;28;20013;-76
2022/01/19 02:57:11;;;;;;;245.23;62.20;;;;;;;;;;5019388;28;20032;-77
2022/01/19 03:10:25;;;;;;;194.90;59.78;;;;;;;;;;5018950;28;20076;-78
2022/01/19 03:12:53;;;;;;;215.07;56.30;;;;;;;;;;5034434;28;20026;-84
2022/01/19 03:15:20;;;;;;;356.83;69.95;;;;;;;;;;5019067;28;20072;-78
2022/01/19 03:17:47;;;;;;;168.25;61.58;;;;;;;;;;5018633;28;20022;-78
2022/01/19 03:20:15;;;;;;;226.95;72.47;;;;;;;;;;5034431;28;20030;-77
2022/01/19 03:22:52;;;;;;;182.02;66.10;;;;;;;;;;5034088;28;20033;-78
2022/01/19 03:25:19;;;;;;;201.60;63.53;;;;;;;;;;4999022;28;20103;-76
2022/01/19 03:27:50;;;;;;;246.57;69.18;;;;;;;;;;4998812;28;20387;-72
2022/01/19 03:30:19;;;;;;;193.38;55.92;;;;;;;;;;5014152;28;20030;-77
2022/01/19 03:32:47;;;;;;;170.55;54.67;;;;;;;;;;4998772;28;20022;-74
2022/01/19 03:35:13;;;;;;;177.70;61.50;;;;;;;;;;4998884;28;20051;-80
2022/01/19 03:37:40;;;;;;;239.70;65.50;;;;;;;;;;4998869;28;20030;-79
2022/01/19 03:40:08;;;;;;;159.57;68.70;;;;;;;;;;4998667;28;20037;-77
2022/01/19 03:42:36;;;;;;;197.35;70.05;;;;;;;;;;4977331;28;20045;-81
2022/01/19 03:45:06;;;;;;;254.77;78.22;;;;;;;;;;4978124;28;20097;-79
2022/01/19 03:47:41;;;;;;;387.58;83.88;;;;;;;;;;4977485;28;20135;-79
2022/01/19 03:50:10;;;;;;;304.20;74.97;;;;;;;;;;4978021;28;20041;-82
2022/01/19 03:52:38;;;;;;;210.85;66.82;;;;;;;;;;4977768;28;20031;-77
2022/01/19 03:55:06;;;;;;;180.73;61.28;;;;;;;;;;4976915;28;20033;-69
2022/01/19 03:57:34;;;;;;;193.13;63.92;;;;;;;;;;4976998;28;20034;-80
2022/01/19 04:00:02;;;;;;;217.18;73.82;;;;;;;;;;4977149;28;20078;-77
2022/01/19 04:02:29;;;;;;;188.95;61.40;;;;;;;;;;4977513;28;20065;-79
2022/01/19 04:05:04;;;;;;;333.58;90.85;;;;;;;;;;4977299;28;20031;-82
2022/01/19 04:07:31;;;;;;;310.88;76.28;;;;;;;;;;4977124;28;20143;-81
2022/01/19 04:09:59;;;;;;;262.42;73.40;;;;;;;;;;4977181;28;20332;-81
2022/01/19 04:12:42;;;;;;;256.80;78.18;;;;;;;;;;4977603;28;20019;-78
2022/01/19 04:15:11;;;;;;;297.77;81.38;;;;;;;;;;4977573;28;20070;-80
2022/01/19 04:17:45;;;;;;;361.95;105.50;;;;;;;;;;4976669;28;20057;-72
2022/01/19 04:20:13;;;;;;;322.13;89.45;;;;;;;;;;4976453;28;20031;-74
2022/01/19 04:22:40;;;;;;;243.07;77.53;;;;;;;;;;4976658;28;20038;-76
2022/01/19 04:25:08;;;;;;;248.25;80.00;;;;;;;;;;4995201;28;20035;-80
2022/01/19 04:27:36;;;;;;;290.27;81.55;;;;;;;;;;4996357;28;20065;-76
2022/01/19 04:32:44;;;;;;;404.40;93.40;;;;;;;;;;4997018;28;20027;-79
2022/01/19 04:35:13;;;;;;;190.85;57.90;;;;;;;;;;4994217;28;20056;-73
2022/01/19 05:02:58;;;;;;;274.45;91.72;;;;;;;;;;5007635;28;20040;-72
2022/01/19 05:05:37;;;;;;;230.25;83.18;;;;;;;;;;4985453;28;20039;-71
2022/01/19 05:08:16;;;;;;;247.40;77.60;;;;;;;;;;4986050;28;20026;-72
2022/01/19 05:13:36;;;;;;;221.40;71.82;;;;;;;;;;4994477;28;20580;-79
2022/01/19 05:16:04;;;;;;;189.63;62.33;;;;;;;;;;5008780;28;20026;-77
2022/01/19 05:18:32;;;;;;;198.18;69.57;;;;;;;;;;5000961;28;20058;-77
2022/01/19 05:20:59;;;;;;;185.75;61.38;;;;;;;;;;4992265;28;20089;-76
2022/01/19 05:23:27;;;;;;;214.18;78.20;;;;;;;;;;4991907;28;20026;-75
2022/01/19 05:25:55;;;;;;;185.30;65.13;;;;;;;;;;4991568;28;20070;-76
2022/01/19 05:28:22;;;;;;;172.30;62.33;;;;;;;;;;4977917;28;20038;-74
2022/01/19 05:30:50;;;;;;;171.45;58.17;;;;;;;;;;4993898;28;20491;-75
2022/01/19 05:33:17;;;;;;;163.77;59.00;;;;;;;;;;4994813;28;20054;-76
2022/01/19 05:35:44;;;;;;;151.00;49.67;;;;;;;;;;4983313;28;20096;-72
2022/01/19 05:38:11;;;;;;;148.32;51.85;;;;;;;;;;5014771;28;20042;-77
2022/01/19 05:40:39;;;;;;;157.05;54.75;;;;;;;;;;5015472;28;20022;-74
2022/01/19 05:43:07;;;;;;;164.63;56.80;;;;;;;;;;5015687;28;20022;-74
2022/01/19 05:45:35;;;;;;;181.23;60.67;;;;;;;;;;5016379;28;20025;-75
2022/01/19 05:48:13;;;;;;;185.13;66.15;;;;;;;;;;5017487;28;20078;-77
2022/01/19 05:50:41;;;;;;;184.48;65.68;;;;;;;;;;5014960;28;20372;-77
2022/01/19 05:53:09;;;;;;;171.73;58.00;;;;;;;;;;5016758;28;20028;-75
2022/01/19 05:55:36;;;;;;;150.70;52.28;;;;;;;;;;5015916;28;20054;-75
2022/01/19 05:58:04;;;;;;;161.40;53.17;;;;;;;;;;5014857;28;20445;-75
2022/01/19 06:00:31;;;;;;;151.20;55.95;;;;;;;;;;5015856;28;20026;-75
2022/01/19 06:02:59;;;;;;;151.35;50.75;;;;;;;;;;5016082;28;20022;-75
2022/01/19 06:05:28;;;;;;;121.10;45.42;;;;;;;;;;5015509;28;20026;-75
2022/01/19 06:08:11;;;;;;;95.15;37.83;;;;;;;;;;5009532;28;20026;-72
2022/01/19 06:10:45;;;;;;;108.03;42.65;;;;;;;;;;5004645;28;20023;-77
2022/01/19 06:13:14;;;;;;;75.57;33.83;;;;;;;;;;5005508;28;20032;-78
2022/01/19 06:15:42;;;;;;;68.20;29.63;;;;;;;;;;5013966;28;20427;-74
2022/01/19 06:18:10;;;;;;;67.85;31.35;;;;;;;;;;5015194;28;20288;-77
2022/01/19 06:20:37;;;;;;;59.05;27.77;;;;;;;;;;5015237;28;20145;-72
2022/01/19 06:23:11;;;;;;;58.75;27.63;;;;;;;;;;5013186;28;20160;-79
2022/01/19 06:25:39;;;;;;;61.22;26.33;;;;;;;;;;4997129;28;20085;-77
2022/01/19 06:28:07;;;;;;;57.85;30.15;;;;;;;;;;4997281;28;20445;-77
2022/01/19 06:30:34;;;;;;;48.63;26.05;;;;;;;;;;5015050;28;20030;-74
2022/01/19 06:33:02;;;;;;;50.45;26.25;;;;;;;;;;5030570;28;20025;-75
2022/01/19 06:35:28;;;;;;;50.83;26.00;;;;;;;;;;5015247;28;20046;-72
2022/01/19 06:37:56;;;;;;;48.45;24.92;;;;;;;;;;5030490;28;20529;-74
2022/01/19 06:40:27;;;;;;;51.33;27.52;;;;;;;;;;5016272;28;20030;-71
2022/01/19 06:42:56;;;;;;;47.92;23.65;;;;;;;;;;5015471;28;20037;-73
2022/01/19 06:45:24;;;;;;;64.00;27.35;;;;;;;;;;5015245;28;20030;-69
2022/01/19 06:47:51;;;;;;;70.43;25.17;;;;;;;;;;5010289;28;20061;-75
2022/01/19 06:50:20;;;;;;;55.40;24.05;;;;;;;;;;5004233;28;20461;-75
2022/01/19 06:52:48;;;;;;;55.50;24.58;;;;;;;;;;5005377;28;20019;-72
2022/01/19 06:55:16;;;;;;;56.70;27.02;;;;;;;;;;5007717;28;20030;-73
2022/01/19 06:57:45;;;;;;;60.05;29.35;;;;;;;;;;5004640;28;20034;-76
2022/01/19 07:00:13;;;;;;;69.53;32.83;;;;;;;;;;5002422;28;20077;-73
2022/01/19 07:02:40;;;;;;;61.75;30.02;;;;;;;;;;5004922;28;20434;-74
2022/01/19 07:05:08;;;;;;;64.70;28.40;;;;;;;;;;5008280;28;20053;-73
2022/01/19 07:07:37;;;;;;;66.25;31.10;;;;;;;;;;5004831;28;20027;-73
2022/01/19 07:10:06;;;;;;;58.30;30.85;;;;;;;;;;5003849;28;20018;-72
2022/01/19 07:12:37;;;;;;;65.57;33.08;;;;;;;;;;5005171;28;20406;-77
2022/01/19 07:15:09;;;;;;;56.85;31.20;;;;;;;;;;5005640;28;20023;-77
2022/01/19 07:17:37;;;;;;;64.07;33.25;;;;;;;;;;5014691;28;20021;-73
2022/01/19 07:20:05;;;;;;;60.95;32.97;;;;;;;;;;5018605;28;20026;-77
2022/01/19 07:22:36;;;;;;;46.03;28.83;;;;;;;;;;5022697;28;20030;-77
2022/01/19 07:25:04;;;;;;;52.58;31.02;;;;;;;;;;5019162;28;20030;-74
2022/01/19 07:27:31;;;;;;;43.38;25.27;;;;;;;;;;5018314;28;20430;-79
2022/01/19 07:29:59;;;;;;;41.30;23.73;;;;;;;;;;5015930;28;20030;-78
2022/01/19 07:32:30;;;;;;;43.95;27.17;;;;;;;;;;5016096;28;20033;-78
2022/01/19 07:34:56;;;;;;;38.47;24.40;;;;;;;;;;4998841;28;20466;-75
2022/01/19 07:37:23;;;;;;;44.35;25.35;;;;;;;;;;4996511;28;20161;-77
2022/01/19 07:39:51;;;;;;;38.83;21.98;;;;;;;;;;4997450;28;20374;-79
2022/01/19 07:42:18;;;;;;;43.75;23.75;;;;;;;;;;5000713;28;20038;-74
2022/01/19 07:44:46;;;;;;;38.33;21.70;;;;;;;;;;5014586;28;20030;-73
2022/01/19 07:47:13;;;;;;;51.88;25.95;;;;;;;;;;5030582;28;20034;-77
2022/01/19 07:49:41;;;;;;;60.33;36.65;;;;;;;;;;4998518;28;20042;-77
2022/01/19 07:52:09;;;;;;;54.92;32.63;;;;;;;;;;4978497;28;20049;-78
2022/01/19 07:54:37;;;;;;;63.20;33.47;;;;;;;;;;4994930;28;20450;-76
2022/01/19 07:57:04;;;;;;;57.35;32.92;;;;;;;;;;4975774;28;20045;-82
2022/01/19 07:59:32;;;;;;;67.60;38.30;;;;;;;;;;4978481;28;20037;-78
2022/01/19 08:02:00;;;;;;;78.60;46.70;;;;;;;;;;4978373;28;20042;-80
2022/01/19 08:04:28;;;;;;;61.10;34.70;;;;;;;;;;4994833;28;20030;-76
2022/01/19 08:06:55;;;;;;;58.92;36.85;;;;;;;;;;4994294;28;20156;-73
2022/01/19 08:09:23;;;;;;;58.72;34.20;;;;;;;;;;4978539;28;20042;-75
2022/01/19 08:11:51;;;;;;;58.97;33.95;;;;;;;;;;4994755;28;20246;-75
2022/01/19 08:14:18;;;;;;;60.92;34.30;;;;;;;;;;4994408;28;20034;-78
2022/01/19 08:16:46;;;;;;;57.80;32.13;;;;;;;;;;4994169;28;20521;-75
2022/01/19 08:19:13;;;;;;;58.63;33.83;;;;;;;;;;4978558;28;20394;-76
2022/01/19 08:21:41;;;;;;;65.88;40.35;;;;;;;;;;4994400;28;20443;-77
2022/01/19 08:24:08;;;;;;;66.35;40.25;;;;;;;;;;4991974;28;20037;-71
2022/01/19 08:26:36;;;;;;;59.80;35.30;;;;;;;;;;4998542;28;20045;-74
2022/01/19 08:29:07;;;;;;;62.88;36.00;;;;;;;;;;5006084;28;20031;-78
2022/01/19 08:31:35;;;;;;;62.40;35.05;;;;;;;;;;5014194;28;20101;-79
2022/01/19 08:34:01;;;;;;;68.72;38.50;;;;;;;;;;5037831;28;20025;-81
2022/01/19 08:36:29;;;;;;;70.13;39.47;;;;;;;;;;5016772;28;20060;-73
2022/01/19 08:38:57;;;;;;;72.53;41.67;;;;;;;;;;5004411;28;20030;-72
2022/01/19 08:41:24;;;;;;;69.10;37.22;;;;;;;;;;5012395;28;20419;-75
2022/01/19 08:43:52;;;;;;;56.75;33.33;;;;;;;;;;5012688;28;20030;-75
2022/01/19 08:46:19;;;;;;;58.58;32.90;;;;;;;;;;4997614;28;20023;-78
2022/01/19 08:48:47;;;;;;;65.45;36.50;;;;;;;;;;4997170;28;20089;-75
2022/01/19 08:51:14;;;;;;;70.38;37.88;;;;;;;;;;5025896;28;20145;-77
2022/01/19 08:53:42;;;;;;;79.63;41.90;;;;;;;;;;5032103;28;20322;-68
2022/01/19 08:56:13;;;;;;;105.80;51.13;;;;;;;;;;5016174;28;20378;-74
2022/01/19 08:58:41;;;;;;;100.20;52.65;;;;;;;;;;5016573;28;20029;-75
2022/01/19 09:01:08;;;;;;;83.57;43.50;;;;;;;;;;5016693;28;20030;-76
2022/01/19 09:03:36;;;;;;;86.25;44.50;;;;;;;;;;5030951;28;20033;-76
2022/01/19 09:06:04;;;;;;;79.72;42.65;;;;;;;;;;5004241;28;20330;-76
2022/01/19 09:08:34;;;;;;;140.02;68.80;;;;;;;;;;5006311;28;20026;-75
2022/01/19 09:11:02;;;;;;;167.02;86.70;;;;;;;;;;5005503;28;20029;-75
2022/01/19 09:13:30;;;;;;;139.32;72.53;;;;;;;;;;5004464;28;20022;-76
2022/01/19 09:15:59;;;;;;;173.23;88.82;;;;;;;;;;5005550;28;20018;-76
2022/01/19 09:18:27;;;;;;;197.55;99.13;;;;;;;;;;5007846;28;20023;-77
2022/01/19 09:20:55;;;;;;;143.00;80.93;;;;;;;;;;4996479;28;20308;-76
2022/01/19 09:23:22;;;;;;;192.27;120.05;;;;;;;;;;4996971;28;20050;-72
2022/01/19 09:25:50;;;;;;;206.65;117.22;;;;;;;;;;4999743;28;20072;-74
2022/01/19 09:28:20;;;;;;;200.75;116.15;;;;;;;;;;5013021;28;20310;-72
2022/01/19 09:30:49;;;;;;;186.50;100.03;;;;;;;;;;5014900;28;20022;-76
2022/01/19 09:33:20;;;;;;;177.40;95.18;;;;;;;;;;5015878;28;20044;-72
2022/01/19 09:36:06;;;;;;;163.40;88.97;;;;;;;;;;5031286;28;20347;-75
2022/01/19 09:38:39;;;;;;;181.30;102.90;;;;;;;;;;5014411;28;20026;-70
2022/01/19 09:41:07;;;;;;;220.57;104.90;;;;;;;;;;5015074;28;20022;-74
2022/01/19 09:43:37;;;;;;;210.30;105.43;;;;;;;;;;5030132;28;20033;-78
2022/01/19 09:46:04;;;;;;;209.35;104.25;;;;;;;;;;5015332;28;20109;-73
2022/01/19 09:48:33;;;;;;;189.65;94.97;;;;;;;;;;5030714;28;20030;-73
2022/01/19 09:51:01;;;;;;;185.88;89.88;;;;;;;;;;5030362;28;20037;-71
2022/01/19 09:53:28;;;;;;;187.10;94.30;;;;;;;;;;5030151;28;20025;-74
2022/01/19 09:55:56;;;;;;;133.52;67.47;;;;;;;;;;5030501;28;20045;-69
2022/01/19 09:58:23;;;;;;;127.47;63.75;;;;;;;;;;5008293;28;20064;-73
2022/01/19 10:00:51;;;;;;;122.72;62.85;;;;;;;;;;5001811;28;20033;-73
2022/01/19 10:03:32;;;;;;;116.20;59.45;;;;;;;;;;5011295;28;20026;-77
2022/01/19 10:06:11;;;;;;;111.65;51.95;;;;;;;;;;5009322;28;20050;-72
2022/01/19 10:08:54;;;;;;;112.25;53.28;;;;;;;;;;5008390;28;20104;-73
2022/01/19 10:17:04;;;;;;;85.75;42.50;;;;;;;;;;5005305;28;20690;-70
2022/01/19 10:19:45;;;;;;;102.35;50.10;;;;;;;;;;5013287;28;20022;-70
2022/01/19 10:22:25;;;;;;;75.13;39.67;;;;;;;;;;5012498;28;20342;-75
2022/01/19 10:25:03;;;;;;;77.05;39.08;;;;;;;;;;5015388;28;20113;-72
2022/01/19 10:27:32;;;;;;;74.45;38.30;;;;;;;;;;4998503;28;20323;-68
2022/01/19 10:30:08;;;;;;;56.15;27.60;;;;;;;;;;5007699;28;20022;-69
2022/01/19 10:32:50;;;;;;;70.63;33.92;;;;;;;;;;5014382;28;20022;-69
2022/01/19 10:35:19;;;;;;;79.07;39.08;;;;;;;;;;5012303;28;20050;-71
2022/01/19 10:37:48;;;;;;;98.05;46.92;;;;;;;;;;5015609;28;20022;-71
2022/01/19 10:40:22;;;;;;;85.20;42.72;;;;;;;;;;5015790;28;20026;-75
2022/01/19 10:42:49;;;;;;;109.28;53.05;;;;;;;;;;5016018;28;20022;-75
2022/01/19 10:45:17;;;;;;;77.38;36.20;;;;;;;;;;5016221;28;20056;-78
2022/01/19 10:48:05;;;;;;;81.57;41.65;;;;;;;;;;5015035;28;20030;-78
2022/01/19 10:50:33;;;;;;;37.83;21.65;;;;;;;;;;5017325;28;20042;-83
2022/01/19 10:53:02;;;;;;;34.05;18.52;;;;;;;;;;5020982;28;20022;-79
2022/01/19 10:55:42;;;;;;;44.38;24.30;;;;;;;;;;5022194;28;20029;-79
2022/01/19 10:58:14;;;;;;;45.53;23.50;;;;;;;;;;5019251;28;20038;-76
2022/01/19 11:00:52;;;;;;;37.80;20.05;;;;;;;;;;5018796;28;20045;-77
2022/01/19 11:03:25;;;;;;;41.75;19.15;;;;;;;;;;5018174;28;20044;-79
2022/01/19 11:06:01;;;;;;;40.65;20.52;;;;;;;;;;5019065;28;20438;-73
2022/01/19 11:08:30;;;;;;;25.63;13.88;;;;;;;;;;5017960;28;20038;-76
2022/01/19 11:10:58;;;;;;;26.38;13.93;;;;;;;;;;5018204;28;20066;-77
2022/01/19 11:13:40;;;;;;;27.02;14.20;;;;;;;;;;5017724;28;20334;-77
2022/01/19 11:16:08;;;;;;;32.30;16.83;;;;;;;;;;5018009;28;20033;-77
2022/01/19 11:18:39;;;;;;;32.35;18.27;;;;;;;;;;5017720;28;20153;-77
2022/01/19 11:21:11;;;;;;;39.80;20.83;;;;;;;;;;5017573;28;20300;-77
2022/01/19 11:23:52;;;;;;;30.02;14.68;;;;;;;;;;5017578;28;20061;-73
2022/01/19 11:26:22;;;;;;;33.65;16.73;;;;;;;;;;5017658;28;20022;-76
2022/01/19 11:28:50;;;;;;;46.17;27.05;;;;;;;;;;5018159;28;20037;-76
2022/01/19 11:31:32;;;;;;;38.60;21.33;;;;;;;;;;5018549;28;20025;-77
2022/01/19 11:34:00;;;;;;;44.25;25.42;;;;;;;;;;5019444;28;20026;-76
2022/01/19 11:36:31;;;;;;;55.42;30.80;;;;;;;;;;5019346;28;20034;-79
2022/01/19 11:39:09;;;;;;;31.85;17.33;;;;;;;;;;5018977;28;20025;-84
2022/01/19 11:41:47;;;;;;;54.03;30.13;;;;;;;;;;5019025;28;20315;-74
2022/01/19 11:44:32;;;;;;;55.90;30.88;;;;;;;;;;5019263;28;20030;-79
2022/01/19 11:47:23;;;;;;;54.08;28.77;;;;;;;;;;5018071;28;20030;-78
2022/01/19 11:50:01;;;;;;;48.47;25.95;;;;;;;;;;5017710;28;20045;-76
2022/01/19 11:52:41;;;;;;;56.40;30.17;;;;;;;;;;5017624;28;20025;-80
2022/01/19 11:55:25;;;;;;;56.67;29.85;;;;;;;;;;5018343;28;20096;-75
2022/01/19 11:58:14;;;;;;;83.55;46.85;;;;;;;;;;5020395;28;20084;-79
2022/01/19 12:00:43;;;;;;;65.85;35.17;;;;;;;;;;5019106;28;20426;-79
2022/01/19 12:03:27;;;;;;;58.67;31.90;;;;;;;;;;5017205;28;20040;-75
2022/01/19 12:05:56;;;;;;;59.05;33.03;;;;;;;;;;5018436;28;20061;-81
2022/01/19 12:08:37;;;;;;;61.28;33.30;;;;;;;;;;5017547;28;20450;-79
2022/01/19 12:11:22;;;;;;;138.27;68.57;;;;;;;;;;5018200;28;20014;-76
2022/01/19 12:14:36;;;;;;;92.20;47.72;;;;;;;;;;5018401;28;20053;-75
2022/01/19 12:17:15;;;;;;;90.75;48.15;;;;;;;;;;5017588;28;20026;-81
2022/01/19 12:19:44;;;;;;;70.68;38.58;;;;;;;;;;4996251;28;20439;-79
2022/01/19 12:22:25;;;;;;;91.82;45.30;;;;;;;;;;4996978;28;20110;-76
2022/01/19 12:25:09;;;;;;;95.53;47.65;;;;;;;;;;4996795;28;20062;-78
2022/01/19 12:27:38;;;;;;;88.38;42.97;;;;;;;;;;4980174;28;20030;-79
2022/01/19 12:30:13;;;;;;;81.20;42.50;;;;;;;;;;4979566;28;20129;-78
2022/01/19 12:32:44;;;;;;;69.28;36.03;;;;;;;;;;4979948;28;20030;-74
2022/01/19 12:35:13;;;;;;;60.63;32.00;;;;;;;;;;4979764;28;20343;-75
2022/01/19 12:37:45;;;;;;;65.57;36.40;;;;;;;;;;4980420;28;20023;-79
2022/01/19 12:40:17;;;;;;;83.32;44.55;;;;;;;;;;4981170;28;20039;-79
2022/01/19 12:43:05;;;;;;;75.80;37.88;;;;;;;;;;4996284;28;20113;-78
2022/01/19 12:45:36;;;;;;;70.10;37.67;;;;;;;;;;4979704;28;20031;-71
2022/01/19 12:48:07;;;;;;;89.45;42.95;;;;;;;;;;4979593;28;20457;-72
2022/01/19 12:50:38;;;;;;;91.32;45.40;;;;;;;;;;4995941;28;20144;-77
2022/01/19 12:53:17;;;;;;;75.03;38.85;;;;;;;;;;4979583;28;20045;-73
2022/01/19 12:55:47;;;;;;;76.88;38.72;;;;;;;;;;4995980;28;20320;-76
2022/01/19 12:58:18;;;;;;;67.93;36.25;;;;;;;;;;4995960;28;20034;-75
2022/01/19 13:00:48;;;;;;;65.38;34.47;;;;;;;;;;4995805;28;20094;-75
2022/01/19 13:03:28;;;;;;;69.88;37.80;;;;;;;;;;4996586;28;20466;-78
2022/01/19 13:05:58;;;;;;;79.35;44.50;;;;;;;;;;5016077;28;20370;-76
2022/01/19 13:08:35;;;;;;;86.97;45.53;;;;;;;;;;5015986;28;20358;-76
2022/01/19 13:11:18;;;;;;;104.22;47.85;;;;;;;;;;5016106;28;20022;-72
2022/01/19 13:13:54;;;;;;;117.13;57.42;;;;;;;;;;5015426;28;20435;-77
2022/01/19 13:16:29;;;;;;;116.07;55.13;;;;;;;;;;5016065;28;20442;-72
2022/01/19 13:19:00;;;;;;;90.78;43.60;;;;;;;;;;5015824;28;20419;-72
2022/01/19 13:21:28;;;;;;;80.80;42.90;;;;;;;;;;5015832;28;20080;-72
2022/01/19 13:23:57;;;;;;;86.47;44.72;;;;;;;;;;5016886;28;20885;-76
2022/01/19 13:26:26;;;;;;;82.28;40.70;;;;;;;;;;5016912;28;20429;-75
2022/01/19 13:28:53;;;;;;;66.07;33.85;;;;;;;;;;5016597;28;20037;-73
2022/01/19 13:31:24;;;;;;;70.68;36.22;;;;;;;;;;5016915;28;20045;-75
2022/01/19 13:34:00;;;;;;;60.63;31.10;;;;;;;;;;5015603;28;20534;-74
2022/01/19 13:36:33;;;;;;;74.60;36.97;;;;;;;;;;5015391;28;20363;-74
2022/01/19 13:39:02;;;;;;;77.25;39.20;;;;;;;;;;5016544;28;20029;-76
2022/01/19 13:41:30;;;;;;;130.60;56.95;;;;;;;;;;5015424;28;20124;-72
2022/01/19 13:44:08;;;;;;;84.95;39.42;;;;;;;;;;5015345;28;20045;-70
2022/01/19 13:46:39;;;;;;;76.50;33.67;;;;;;;;;;5016412;28;20080;-71
2022/01/19 13:49:07;;;;;;;92.53;40.85;;;;;;;;;;5015225;28;20032;-73
2022/01/19 13:51:37;;;;;;;66.90;31.25;;;;;;;;;;5016331;28;20244;-76
2022/01/19 13:54:06;;;;;;;68.07;33.88;;;;;;;;;;5016220;28;20022;-73
2022/01/19 13:56:40;;;;;;;95.25;45.03;;;;;;;;;;5015084;28;20034;-74
2022/01/19 13:59:20;;;;;;;70.60;33.17;;;;;;;;;;5016249;28;20037;-70
2022/01/19 14:02:08;;;;;;;67.18;28.30;;;;;;;;;;5016140;28;20137;-73
2022/01/19 14:04:36;;;;;;;98.90;39.25;;;;;;;;;;5016148;28;20109;-69
2022/01/19 14:07:16;;;;;;;94.38;38.33;;;;;;;;;;5016129;28;20383;-73
2022/01/19 14:09:43;;;;;;;76.38;31.38;;;;;;;;;;5016075;28;20026;-70
2022/01/19 14:12:16;;;;;;;48.83;23.10;;;;;;;;;;5015071;28;20319;-70
2022/01/19 14:14:55;;;;;;;77.70;35.58;;;;;;;;;;5015993;28;20322;-73
2022/01/19 14:17:37;;;;;;;74.53;35.42;;;;;;;;;;5014804;28;20026;-71
2022/01/19 14:20:05;;;;;;;42.25;20.13;;;;;;;;;;5016013;28;20080;-73
2022/01/19 14:22:33;;;;;;;57.22;28.77;;;;;;;;;;5014892;28;20072;-72
2022/01/19 14:25:11;;;;;;;40.03;22.83;;;;;;;;;;5015097;28;20164;-70
2022/01/19 14:27:48;;;;;;;30.75;16.83;;;;;;;;;;5018856;28;20033;-70
2022/01/19 14:30:28;;;;;;;33.10;17.75;;;;;;;;;;5018757;28;20453;-74
2022/01/19 14:33:13;;;;;;;36.33;19.48;;;;;;;;;;5019934;28;20500;-72
2022/01/19 14:35:43;;;;;;;37.45;19.30;;;;;;;;;;5019714;28;20077;-70
2022/01/19 14:38:19;;;;;;;30.08;16.52;;;;;;;;;;5019759;28;20056;-69
2022/01/19 14:41:00;;;;;;;33.53;17.63;;;;;;;;;;5019789;28;20033;-70
2022/01/19 14:43:41;;;;;;;26.40;14.35;;;;;;;;;;5019699;28;20022;-73
2022/01/19 14:46:11;;;;;;;23.60;12.27;;;;;;;;;;5018544;28;20053;-74
2022/01/19 14:48:40;;;;;;;31.60;17.00;;;;;;;;;;5019463;28;20322;-70
2022/01/19 14:51:23;;;;;;;29.63;16.30;;;;;;;;;;5019548;28;20093;-67
2022/01/19 14:53:52;;;;;;;40.78;21.63;;;;;;;;;;5018503;28;20355;-70
2022/01/19 14:56:19;;;;;;;53.20;25.80;;;;;;;;;;5019538;28;20276;-69
2022/01/19 14:58:47;;;;;;;58.45;27.98;;;;;;;;;;5018396;28;20048;-69
2022/01/19 15:01:14;;;;;;;57.55;29.13;;;;;;;;;;5019586;28;20026;-70
2022/01/19 15:03:43;;;;;;;57.15;30.98;;;;;;;;;;5018339;28;20481;-69
2022/01/19 15:06:11;;;;;;;59.78;32.85;;;;;;;;;;5018364;28;20030;-72
2022/01/19 15:08:41;;;;;;;49.53;27.85;;;;;;;;;;5019225;28;20446;-70
2022/01/19 15:11:08;;;;;;;46.38;25.60;;;;;;;;;;5018186;28;20026;-72
2022/01/19 15:13:36;;;;;;;45.53;24.80;;;;;;;;;;5018211;28;20022;-73
2022/01/19 15:16:05;;;;;;;52.05;29.67;;;;;;;;;;5019348;28;20030;-72
2022/01/19 15:18:33;;;;;;;58.70;31.77;;;;;;;;;;5019159;28;20095;-70
2022/01/19 15:21:01;;;;;;;59.45;31.10;;;;;;;;;;5019256;28;20022;-72
2022/01/19 15:23:28;;;;;;;63.13;32.08;;;;;;;;;;5019832;28;20287;-72
2022/01/19 15:25:57;;;;;;;64.03;32.25;;;;;;;;;;5017675;28;20018;-69
2022/01/19 15:28:25;;;;;;;61.50;33.58;;;;;;;;;;5018814;28;20080;-70
2022/01/19 15:30:53;;;;;;;63.22;31.48;;;;;;;;;;5018809;28;20022;-69
2022/01/19 15:33:22;;;;;;;63.95;32.45;;;;;;;;;;5018821;28;20018;-69
2022/01/19 15:35:49;;;;;;;67.05;34.30;;;;;;;;;;5018073;28;20077;-70
2022/01/19 15:38:17;;;;;;;72.63;35.05;;;;;;;;;;5018706;28;20018;-73
2022/01/19 15:40:45;;;;;;;61.40;31.90;;;;;;;;;;5018811;28;20082;-72
2022/01/19 15:43:18;;;;;;;78.97;39.10;;;;;;;;;;5018550;28;20107;-72
2022/01/19 15:45:47;;;;;;;56.10;27.55;;;;;;;;;;5018553;28;20037;-72
2022/01/19 15:48:18;;;;;;;63.80;33.22;;;;;;;;;;5018307;28;20033;-74
2022/01/19 15:50:55;;;;;;;44.58;23.65;;;;;;;;;;5018000;28;20025;-77
2022/01/19 15:53:24;;;;;;;54.10;26.02;;;;;;;;;;5018456;28;20438;-78
2022/01/19 15:55:53;;;;;;;50.08;26.75;;;;;;;;;;5018465;28;20030;-77
2022/01/19 15:58:21;;;;;;;70.45;33.47;;;;;;;;;;5018401;28;20022;-77
2022/01/19 16:00:50;;;;;;;112.35;46.92;;;;;;;;;;5017320;28;20030;-76